sensor_id;sensor_type;location;lat;lon;timestamp;P1;durP1;ratioP1;P2;durP2;ratioP2
16450;SDS011;12243;42.708;23.310;2022-11-15T00:01:22;127.30;;;74.17;;
16450;SDS011;12243;42.708;23.310;2022-11-15T00:04:07;144.30;;;78.40;;
16450;SDS011;12243;42.708;23.310;2022-11-15T00:06:54;124.30;;;71.90;;
16450;SDS011;12243;42.708;23.310;2022-11-15T00:09:40;146.53;;;83.80;;
16450;SDS011;12243;42.708;23.310;2022-11-15T00:12:26;139.87;;;81.47;;
16450;SDS011;12243;42.708;23.310;2022-11-15T00:15:13;124.43;;;73.80;;
16450;SDS011;12243;42.708;23.310;2022-11-15T00:18:01;132.53;;;72.50;;
16450;SDS011;12243;42.708;23.310;2022-11-15T00:20:49;113.53;;;65.60;;
16450;SDS011;12243;42.708;23.310;2022-11-15T00:23:37;118.23;;;68.53;;
16450;SDS011;12243;42.708;23.310;2022-11-15T00:26:25;114.37;;;62.93;;
16450;SDS011;12243;42.708;23.310;2022-11-15T00:29:11;120.47;;;69.90;;
16450;SDS011;12243;42.708;23.310;2022-11-15T00:32:00;131.23;;;76.30;;
16450;SDS011;12243;42.708;23.310;2022-11-15T00:34:48;128.97;;;72.90;;
16450;SDS011;12243;42.708;23.310;2022-11-15T00:37:36;138.47;;;78.27;;
16450;SDS011;12243;42.708;23.310;2022-11-15T00:40:22;138.07;;;80.30;;
16450;SDS011;12243;42.708;23.310;2022-11-15T00:43:07;121.63;;;69.97;;
16450;SDS011;12243;42.708;23.310;2022-11-15T00:45:52;119.27;;;68.40;;
16450;SDS011;12243;42.708;23.310;2022-11-15T00:48:38;119.57;;;67.70;;
16450;SDS011;12243;42.708;23.310;2022-11-15T00:51:25;117.13;;;67.20;;
16450;SDS011;12243;42.708;23.310;2022-11-15T00:54:10;122.47;;;68.03;;
16450;SDS011;12243;42.708;23.310;2022-11-15T00:56:55;113.63;;;63.47;;
16450;SDS011;12243;42.708;23.310;2022-11-15T00:59:41;102.47;;;57.17;;
16450;SDS011;12243;42.708;23.310;2022-11-15T01:02:27;104.13;;;59.20;;
16450;SDS011;12243;42.708;23.310;2022-11-15T01:05:13;96.67;;;54.10;;
16450;SDS011;12243;42.708;23.310;2022-11-15T01:07:59;98.80;;;55.37;;
16450;SDS011;12243;42.708;23.310;2022-11-15T01:10:45;98.67;;;52.80;;
16450;SDS011;12243;42.708;23.310;2022-11-15T01:13:30;100.53;;;55.03;;
16450;SDS011;12243;42.708;23.310;2022-11-15T01:16:17;95.63;;;53.70;;
16450;SDS011;12243;42.708;23.310;2022-11-15T01:19:03;101.60;;;56.07;;
16450;SDS011;12243;42.708;23.310;2022-11-15T01:21:49;105.23;;;58.10;;
16450;SDS011;12243;42.708;23.310;2022-11-15T01:24:36;101.80;;;58.00;;
16450;SDS011;12243;42.708;23.310;2022-11-15T01:27:22;102.27;;;58.33;;
16450;SDS011;12243;42.708;23.310;2022-11-15T01:30:08;101.70;;;57.57;;
16450;SDS011;12243;42.708;23.310;2022-11-15T01:32:53;106.87;;;59.47;;
16450;SDS011;12243;42.708;23.310;2022-11-15T01:35:39;97.30;;;58.53;;
16450;SDS011;12243;42.708;23.310;2022-11-15T01:38:24;98.33;;;58.37;;
16450;SDS011;12243;42.708;23.310;2022-11-15T01:41:16;96.37;;;53.60;;
16450;SDS011;12243;42.708;23.310;2022-11-15T01:47:28;84.63;;;47.10;;
16450;SDS011;12243;42.708;23.310;2022-11-15T01:50:19;88.47;;;47.70;;
16450;SDS011;12243;42.708;23.310;2022-11-15T01:53:08;78.80;;;44.17;;
16450;SDS011;12243;42.708;23.310;2022-11-15T01:55:54;81.63;;;45.13;;
16450;SDS011;12243;42.708;23.310;2022-11-15T01:58:42;80.17;;;42.37;;
16450;SDS011;12243;42.708;23.310;2022-11-15T02:01:30;67.97;;;40.97;;
16450;SDS011;12243;42.708;23.310;2022-11-15T02:04:18;77.00;;;43.37;;
16450;SDS011;12243;42.708;23.310;2022-11-15T02:07:08;74.03;;;43.93;;
16450;SDS011;12243;42.708;23.310;2022-11-15T02:09:56;73.53;;;41.93;;
16450;SDS011;12243;42.708;23.310;2022-11-15T02:12:47;69.40;;;40.50;;
16450;SDS011;12243;42.708;23.310;2022-11-15T02:15:35;65.07;;;39.73;;
16450;SDS011;12243;42.708;23.310;2022-11-15T02:18:30;69.23;;;39.20;;
16450;SDS011;12243;42.708;23.310;2022-11-15T02:21:20;64.47;;;37.80;;
16450;SDS011;12243;42.708;23.310;2022-11-15T02:27:42;67.70;;;36.63;;
16450;SDS011;12243;42.708;23.310;2022-11-15T02:30:46;59.37;;;34.33;;
16450;SDS011;12243;42.708;23.310;2022-11-15T02:33:37;59.90;;;35.57;;
16450;SDS011;12243;42.708;23.310;2022-11-15T02:36:31;62.43;;;35.90;;
16450;SDS011;12243;42.708;23.310;2022-11-15T02:39:26;62.00;;;35.23;;
16450;SDS011;12243;42.708;23.310;2022-11-15T02:42:19;60.37;;;34.33;;
16450;SDS011;12243;42.708;23.310;2022-11-15T02:45:27;58.73;;;35.03;;
16450;SDS011;12243;42.708;23.310;2022-11-15T02:48:17;60.10;;;34.63;;
16450;SDS011;12243;42.708;23.310;2022-11-15T02:51:06;63.43;;;36.13;;
16450;SDS011;12243;42.708;23.310;2022-11-15T02:53:53;62.67;;;36.03;;
16450;SDS011;12243;42.708;23.310;2022-11-15T02:56:38;69.07;;;36.97;;
16450;SDS011;12243;42.708;23.310;2022-11-15T02:59:29;76.53;;;39.90;;
16450;SDS011;12243;42.708;23.310;2022-11-15T03:02:36;76.07;;;39.40;;
16450;SDS011;12243;42.708;23.310;2022-11-15T03:05:33;79.93;;;39.87;;
16450;SDS011;12243;42.708;23.310;2022-11-15T03:08:22;70.03;;;41.37;;
16450;SDS011;12243;42.708;23.310;2022-11-15T03:11:16;73.93;;;40.93;;
16450;SDS011;12243;42.708;23.310;2022-11-15T03:14:06;76.50;;;37.37;;
16450;SDS011;12243;42.708;23.310;2022-11-15T03:17:05;70.77;;;35.80;;
16450;SDS011;12243;42.708;23.310;2022-11-15T03:20:01;66.70;;;37.60;;
16450;SDS011;12243;42.708;23.310;2022-11-15T03:22:50;78.47;;;38.30;;
16450;SDS011;12243;42.708;23.310;2022-11-15T03:25:40;73.70;;;38.07;;
16450;SDS011;12243;42.708;23.310;2022-11-15T03:28:31;73.70;;;39.23;;
16450;SDS011;12243;42.708;23.310;2022-11-15T03:31:21;74.30;;;42.37;;
16450;SDS011;12243;42.708;23.310;2022-11-15T03:34:35;75.50;;;41.03;;
16450;SDS011;12243;42.708;23.310;2022-11-15T03:37:27;81.23;;;39.03;;
16450;SDS011;12243;42.708;23.310;2022-11-15T03:40:19;83.67;;;42.30;;
16450;SDS011;12243;42.708;23.310;2022-11-15T03:43:12;84.30;;;44.77;;
16450;SDS011;12243;42.708;23.310;2022-11-15T03:46:07;84.60;;;43.87;;
16450;SDS011;12243;42.708;23.310;2022-11-15T03:49:00;98.43;;;45.27;;
16450;SDS011;12243;42.708;23.310;2022-11-15T03:51:50;104.30;;;46.00;;
16450;SDS011;12243;42.708;23.310;2022-11-15T03:54:36;89.03;;;43.17;;
16450;SDS011;12243;42.708;23.310;2022-11-15T03:57:22;94.60;;;43.70;;
16450;SDS011;12243;42.708;23.310;2022-11-15T04:00:08;101.70;;;43.33;;
16450;SDS011;12243;42.708;23.310;2022-11-15T04:02:55;95.50;;;43.53;;
16450;SDS011;12243;42.708;23.310;2022-11-15T04:05:40;83.63;;;41.57;;
16450;SDS011;12243;42.708;23.310;2022-11-15T04:08:29;90.20;;;41.58;;
16450;SDS011;12243;42.708;23.310;2022-11-15T04:11:15;96.30;;;43.30;;
16450;SDS011;12243;42.708;23.310;2022-11-15T04:14:02;87.83;;;39.23;;
16450;SDS011;12243;42.708;23.310;2022-11-15T04:16:47;87.00;;;39.67;;
16450;SDS011;12243;42.708;23.310;2022-11-15T04:19:32;96.60;;;40.27;;
16450;SDS011;12243;42.708;23.310;2022-11-15T04:22:35;82.90;;;37.67;;
16450;SDS011;12243;42.708;23.310;2022-11-15T04:25:38;83.73;;;38.60;;
16450;SDS011;12243;42.708;23.310;2022-11-15T04:28:24;83.80;;;36.03;;
16450;SDS011;12243;42.708;23.310;2022-11-15T04:31:11;96.00;;;38.07;;
16450;SDS011;12243;42.708;23.310;2022-11-15T04:33:57;97.10;;;38.83;;
16450;SDS011;12243;42.708;23.310;2022-11-15T04:36:43;84.67;;;36.87;;
16450;SDS011;12243;42.708;23.310;2022-11-15T04:39:46;85.03;;;35.47;;
16450;SDS011;12243;42.708;23.310;2022-11-15T04:42:32;86.47;;;36.30;;
16450;SDS011;12243;42.708;23.310;2022-11-15T04:45:18;88.73;;;36.17;;
16450;SDS011;12243;42.708;23.310;2022-11-15T04:48:07;92.33;;;37.00;;
16450;SDS011;12243;42.708;23.310;2022-11-15T04:50:52;84.97;;;36.53;;
16450;SDS011;12243;42.708;23.310;2022-11-15T04:53:38;93.97;;;38.43;;
16450;SDS011;12243;42.708;23.310;2022-11-15T04:56:23;88.97;;;37.37;;
16450;SDS011;12243;42.708;23.310;2022-11-15T04:59:09;90.53;;;38.37;;
16450;SDS011;12243;42.708;23.310;2022-11-15T05:01:54;97.07;;;39.20;;
16450;SDS011;12243;42.708;23.310;2022-11-15T05:04:41;100.27;;;39.57;;
16450;SDS011;12243;42.708;23.310;2022-11-15T05:07:26;93.23;;;40.23;;
16450;SDS011;12243;42.708;23.310;2022-11-15T05:10:11;100.50;;;40.03;;
16450;SDS011;12243;42.708;23.310;2022-11-15T05:12:57;105.53;;;42.30;;
16450;SDS011;12243;42.708;23.310;2022-11-15T05:15:43;104.50;;;44.17;;
16450;SDS011;12243;42.708;23.310;2022-11-15T05:18:29;108.90;;;43.63;;
16450;SDS011;12243;42.708;23.310;2022-11-15T05:21:15;123.57;;;46.30;;
16450;SDS011;12243;42.708;23.310;2022-11-15T05:24:01;120.00;;;46.73;;
16450;SDS011;12243;42.708;23.310;2022-11-15T05:26:47;117.00;;;47.67;;
16450;SDS011;12243;42.708;23.310;2022-11-15T05:29:32;124.27;;;47.80;;
16450;SDS011;12243;42.708;23.310;2022-11-15T05:32:18;147.77;;;51.10;;
16450;SDS011;12243;42.708;23.310;2022-11-15T05:35:04;128.00;;;49.13;;
16450;SDS011;12243;42.708;23.310;2022-11-15T05:37:55;124.93;;;47.60;;
16450;SDS011;12243;42.708;23.310;2022-11-15T05:40:41;129.47;;;48.43;;
16450;SDS011;12243;42.708;23.310;2022-11-15T05:43:26;115.73;;;49.77;;
16450;SDS011;12243;42.708;23.310;2022-11-15T05:46:14;128.67;;;49.17;;
16450;SDS011;12243;42.708;23.310;2022-11-15T05:48:59;144.87;;;66.33;;
16450;SDS011;12243;42.708;23.310;2022-11-15T05:51:46;130.53;;;48.93;;
16450;SDS011;12243;42.708;23.310;2022-11-15T05:54:34;115.90;;;46.07;;
16450;SDS011;12243;42.708;23.310;2022-11-15T05:57:21;123.73;;;47.47;;
16450;SDS011;12243;42.708;23.310;2022-11-15T06:00:07;138.57;;;49.83;;
16450;SDS011;12243;42.708;23.310;2022-11-15T06:02:53;147.77;;;49.60;;
16450;SDS011;12243;42.708;23.310;2022-11-15T06:05:39;121.37;;;47.27;;
16450;SDS011;12243;42.708;23.310;2022-11-15T06:08:24;143.67;;;48.53;;
16450;SDS011;12243;42.708;23.310;2022-11-15T06:11:11;129.13;;;50.33;;
16450;SDS011;12243;42.708;23.310;2022-11-15T06:13:56;136.93;;;50.43;;
16450;SDS011;12243;42.708;23.310;2022-11-15T06:16:42;146.17;;;50.80;;
16450;SDS011;12243;42.708;23.310;2022-11-15T06:19:27;135.40;;;48.60;;
16450;SDS011;12243;42.708;23.310;2022-11-15T06:22:16;139.53;;;52.50;;
16450;SDS011;12243;42.708;23.310;2022-11-15T06:25:02;136.93;;;51.53;;
16450;SDS011;12243;42.708;23.310;2022-11-15T06:27:51;141.57;;;51.50;;
16450;SDS011;12243;42.708;23.310;2022-11-15T06:30:37;132.67;;;52.40;;
16450;SDS011;12243;42.708;23.310;2022-11-15T06:33:22;131.77;;;52.17;;
16450;SDS011;12243;42.708;23.310;2022-11-15T06:36:08;123.67;;;50.13;;
16450;SDS011;12243;42.708;23.310;2022-11-15T06:38:57;127.47;;;52.40;;
16450;SDS011;12243;42.708;23.310;2022-11-15T06:41:42;134.00;;;51.10;;
16450;SDS011;12243;42.708;23.310;2022-11-15T06:44:29;126.03;;;50.40;;
16450;SDS011;12243;42.708;23.310;2022-11-15T06:47:14;138.07;;;50.53;;
16450;SDS011;12243;42.708;23.310;2022-11-15T06:50:00;130.73;;;50.40;;
16450;SDS011;12243;42.708;23.310;2022-11-15T06:52:45;134.80;;;52.17;;
16450;SDS011;12243;42.708;23.310;2022-11-15T06:55:31;133.10;;;50.73;;
16450;SDS011;12243;42.708;23.310;2022-11-15T06:58:16;131.30;;;51.40;;
16450;SDS011;12243;42.708;23.310;2022-11-15T07:01:04;134.20;;;52.80;;
16450;SDS011;12243;42.708;23.310;2022-11-15T07:03:52;136.50;;;53.40;;
16450;SDS011;12243;42.708;23.310;2022-11-15T07:06:37;124.33;;;52.30;;
16450;SDS011;12243;42.708;23.310;2022-11-15T07:09:23;117.03;;;49.03;;
16450;SDS011;12243;42.708;23.310;2022-11-15T07:12:09;110.07;;;45.40;;
16450;SDS011;12243;42.708;23.310;2022-11-15T07:14:55;106.17;;;46.97;;
16450;SDS011;12243;42.708;23.310;2022-11-15T07:17:42;106.43;;;47.83;;
16450;SDS011;12243;42.708;23.310;2022-11-15T07:20:27;105.23;;;48.43;;
16450;SDS011;12243;42.708;23.310;2022-11-15T07:23:13;96.43;;;45.33;;
16450;SDS011;12243;42.708;23.310;2022-11-15T07:25:59;82.17;;;41.20;;
16450;SDS011;12243;42.708;23.310;2022-11-15T07:28:44;76.70;;;39.07;;
16450;SDS011;12243;42.708;23.310;2022-11-15T07:31:30;70.70;;;36.43;;
16450;SDS011;12243;42.708;23.310;2022-11-15T07:34:17;73.90;;;38.50;;
16450;SDS011;12243;42.708;23.310;2022-11-15T07:37:02;81.63;;;37.33;;
16450;SDS011;12243;42.708;23.310;2022-11-15T07:39:47;74.40;;;37.43;;
16450;SDS011;12243;42.708;23.310;2022-11-15T07:42:32;64.57;;;36.97;;
16450;SDS011;12243;42.708;23.310;2022-11-15T07:45:41;67.47;;;36.07;;
16450;SDS011;12243;42.708;23.310;2022-11-15T07:48:27;72.23;;;37.60;;
16450;SDS011;12243;42.708;23.310;2022-11-15T07:51:15;78.40;;;37.83;;
16450;SDS011;12243;42.708;23.310;2022-11-15T07:54:01;74.33;;;35.73;;
16450;SDS011;12243;42.708;23.310;2022-11-15T07:56:47;71.17;;;39.00;;
16450;SDS011;12243;42.708;23.310;2022-11-15T07:59:32;80.10;;;39.13;;
16450;SDS011;12243;42.708;23.310;2022-11-15T08:02:18;80.00;;;40.20;;
16450;SDS011;12243;42.708;23.310;2022-11-15T08:05:04;79.37;;;39.73;;
16450;SDS011;12243;42.708;23.310;2022-11-15T08:07:51;80.10;;;41.10;;
16450;SDS011;12243;42.708;23.310;2022-11-15T08:10:37;87.97;;;41.43;;
16450;SDS011;12243;42.708;23.310;2022-11-15T08:13:22;73.90;;;39.57;;
16450;SDS011;12243;42.708;23.310;2022-11-15T08:16:08;81.50;;;43.07;;
16450;SDS011;12243;42.708;23.310;2022-11-15T08:18:55;87.67;;;42.77;;
16450;SDS011;12243;42.708;23.310;2022-11-15T08:21:41;94.43;;;48.73;;
16450;SDS011;12243;42.708;23.310;2022-11-15T08:24:28;96.73;;;46.80;;
16450;SDS011;12243;42.708;23.310;2022-11-15T08:27:13;92.37;;;44.67;;
16450;SDS011;12243;42.708;23.310;2022-11-15T08:29:59;91.57;;;44.33;;
16450;SDS011;12243;42.708;23.310;2022-11-15T08:32:45;93.97;;;46.07;;
16450;SDS011;12243;42.708;23.310;2022-11-15T08:35:31;92.77;;;45.20;;
16450;SDS011;12243;42.708;23.310;2022-11-15T08:38:16;86.67;;;45.63;;
16450;SDS011;12243;42.708;23.310;2022-11-15T08:41:03;86.70;;;44.90;;
16450;SDS011;12243;42.708;23.310;2022-11-15T08:43:50;85.40;;;43.33;;
16450;SDS011;12243;42.708;23.310;2022-11-15T08:46:35;85.93;;;41.90;;
16450;SDS011;12243;42.708;23.310;2022-11-15T08:49:20;86.13;;;43.33;;
16450;SDS011;12243;42.708;23.310;2022-11-15T08:52:06;75.27;;;41.43;;
16450;SDS011;12243;42.708;23.310;2022-11-15T08:54:52;77.17;;;41.90;;
16450;SDS011;12243;42.708;23.310;2022-11-15T08:57:39;78.73;;;42.07;;
16450;SDS011;12243;42.708;23.310;2022-11-15T09:00:24;81.80;;;43.70;;
16450;SDS011;12243;42.708;23.310;2022-11-15T09:03:10;83.47;;;41.00;;
16450;SDS011;12243;42.708;23.310;2022-11-15T09:05:56;76.07;;;42.13;;
16450;SDS011;12243;42.708;23.310;2022-11-15T09:08:42;74.23;;;41.80;;
16450;SDS011;12243;42.708;23.310;2022-11-15T09:11:27;77.63;;;43.77;;
16450;SDS011;12243;42.708;23.310;2022-11-15T09:14:14;75.07;;;41.93;;
16450;SDS011;12243;42.708;23.310;2022-11-15T09:17:00;72.80;;;41.27;;
16450;SDS011;12243;42.708;23.310;2022-11-15T09:19:46;70.00;;;41.43;;
16450;SDS011;12243;42.708;23.310;2022-11-15T09:26:19;68.53;;;40.83;;
16450;SDS011;12243;42.708;23.310;2022-11-15T09:29:05;67.20;;;38.90;;
16450;SDS011;12243;42.708;23.310;2022-11-15T09:31:52;69.43;;;41.83;;
16450;SDS011;12243;42.708;23.310;2022-11-15T09:34:38;66.07;;;40.63;;
16450;SDS011;12243;42.708;23.310;2022-11-15T09:37:23;74.50;;;43.03;;
16450;SDS011;12243;42.708;23.310;2022-11-15T09:40:11;79.20;;;44.07;;
16450;SDS011;12243;42.708;23.310;2022-11-15T09:43:06;87.90;;;52.60;;
16450;SDS011;12243;42.708;23.310;2022-11-15T09:46:09;78.17;;;43.93;;
16450;SDS011;12243;42.708;23.310;2022-11-15T09:49:03;85.17;;;49.77;;
16450;SDS011;12243;42.708;23.310;2022-11-15T09:51:40;80.13;;;45.70;;
16450;SDS011;12243;42.708;23.310;2022-11-15T09:54:16;77.30;;;43.73;;
16450;SDS011;12243;42.708;23.310;2022-11-15T09:56:49;77.90;;;44.07;;
16450;SDS011;12243;42.708;23.310;2022-11-15T09:59:20;81.57;;;44.13;;
16450;SDS011;12243;42.708;23.310;2022-11-15T10:01:56;74.40;;;43.77;;
16450;SDS011;12243;42.708;23.310;2022-11-15T10:04:37;73.63;;;44.23;;
16450;SDS011;12243;42.708;23.310;2022-11-15T10:07:06;75.03;;;43.77;;
16450;SDS011;12243;42.708;23.310;2022-11-15T10:09:43;74.40;;;43.67;;
16450;SDS011;12243;42.708;23.310;2022-11-15T10:12:14;77.00;;;44.53;;
16450;SDS011;12243;42.708;23.310;2022-11-15T10:14:42;75.87;;;43.87;;
16450;SDS011;12243;42.708;23.310;2022-11-15T10:20:35;75.47;;;46.53;;
16450;SDS011;12243;42.708;23.310;2022-11-15T10:23:10;75.63;;;44.83;;
16450;SDS011;12243;42.708;23.310;2022-11-15T10:25:40;73.60;;;44.63;;
16450;SDS011;12243;42.708;23.310;2022-11-15T10:28:09;75.20;;;46.80;;
16450;SDS011;12243;42.708;23.310;2022-11-15T10:30:41;73.13;;;45.70;;
16450;SDS011;12243;42.708;23.310;2022-11-15T10:33:11;70.93;;;45.20;;
16450;SDS011;12243;42.708;23.310;2022-11-15T10:35:45;80.17;;;46.63;;
16450;SDS011;12243;42.708;23.310;2022-11-15T10:38:12;74.57;;;45.23;;
16450;SDS011;12243;42.708;23.310;2022-11-15T10:40:39;82.00;;;47.97;;
16450;SDS011;12243;42.708;23.310;2022-11-15T10:43:16;84.63;;;50.43;;
16450;SDS011;12243;42.708;23.310;2022-11-15T10:45:44;84.17;;;49.03;;
16450;SDS011;12243;42.708;23.310;2022-11-15T10:48:23;91.00;;;50.73;;
16450;SDS011;12243;42.708;23.310;2022-11-15T10:50:53;89.73;;;50.27;;
16450;SDS011;12243;42.708;23.310;2022-11-15T10:53:23;93.10;;;52.07;;
16450;SDS011;12243;42.708;23.310;2022-11-15T10:55:54;97.73;;;53.27;;
16450;SDS011;12243;42.708;23.310;2022-11-15T10:58:29;94.10;;;51.90;;
16450;SDS011;12243;42.708;23.310;2022-11-15T11:01:14;95.93;;;52.83;;
16450;SDS011;12243;42.708;23.310;2022-11-15T11:03:44;96.30;;;52.83;;
16450;SDS011;12243;42.708;23.310;2022-11-15T11:06:25;89.17;;;51.50;;
16450;SDS011;12243;42.708;23.310;2022-11-15T11:08:54;91.13;;;52.30;;
16450;SDS011;12243;42.708;23.310;2022-11-15T11:11:43;92.53;;;53.90;;
16450;SDS011;12243;42.708;23.310;2022-11-15T11:14:12;93.17;;;52.03;;
16450;SDS011;12243;42.708;23.310;2022-11-15T11:16:44;90.33;;;50.77;;
16450;SDS011;12243;42.708;23.310;2022-11-15T11:22:18;90.47;;;51.47;;
16450;SDS011;12243;42.708;23.310;2022-11-15T11:27:55;89.63;;;53.27;;
16450;SDS011;12243;42.708;23.310;2022-11-15T11:30:47;94.90;;;52.80;;
16450;SDS011;12243;42.708;23.310;2022-11-15T11:33:20;86.40;;;51.63;;
16450;SDS011;12243;42.708;23.310;2022-11-15T11:35:50;89.53;;;52.37;;
16450;SDS011;12243;42.708;23.310;2022-11-15T11:38:34;91.37;;;51.97;;
16450;SDS011;12243;42.708;23.310;2022-11-15T11:41:13;93.10;;;53.60;;
16450;SDS011;12243;42.708;23.310;2022-11-15T11:43:49;89.40;;;51.80;;
16450;SDS011;12243;42.708;23.310;2022-11-15T11:46:41;95.22;;;54.92;;
16450;SDS011;12243;42.708;23.310;2022-11-15T11:49:15;93.77;;;54.17;;
16450;SDS011;12243;42.708;23.310;2022-11-15T11:51:49;93.87;;;54.87;;
16450;SDS011;12243;42.708;23.310;2022-11-15T11:54:22;90.77;;;54.13;;
16450;SDS011;12243;42.708;23.310;2022-11-15T11:56:59;95.17;;;54.53;;
16450;SDS011;12243;42.708;23.310;2022-11-15T11:59:31;98.23;;;54.00;;
16450;SDS011;12243;42.708;23.310;2022-11-15T12:02:12;91.20;;;54.30;;
16450;SDS011;12243;42.708;23.310;2022-11-15T12:04:44;87.20;;;53.83;;
16450;SDS011;12243;42.708;23.310;2022-11-15T12:07:15;89.40;;;52.30;;
16450;SDS011;12243;42.708;23.310;2022-11-15T12:09:51;85.87;;;53.73;;
16450;SDS011;12243;42.708;23.310;2022-11-15T12:12:25;88.13;;;53.80;;
16450;SDS011;12243;42.708;23.310;2022-11-15T12:15:00;90.57;;;53.97;;
16450;SDS011;12243;42.708;23.310;2022-11-15T12:17:31;87.50;;;52.80;;
16450;SDS011;12243;42.708;23.310;2022-11-15T12:20:02;87.53;;;52.70;;
16450;SDS011;12243;42.708;23.310;2022-11-15T12:22:38;89.87;;;52.83;;
16450;SDS011;12243;42.708;23.310;2022-11-15T12:25:18;90.40;;;52.07;;
16450;SDS011;12243;42.708;23.310;2022-11-15T12:27:51;93.70;;;55.80;;
16450;SDS011;12243;42.708;23.310;2022-11-15T12:30:24;84.80;;;52.47;;
16450;SDS011;12243;42.708;23.310;2022-11-15T12:32:59;94.30;;;55.70;;
16450;SDS011;12243;42.708;23.310;2022-11-15T12:35:32;87.53;;;53.13;;
16450;SDS011;12243;42.708;23.310;2022-11-15T12:38:08;84.53;;;52.97;;
16450;SDS011;12243;42.708;23.310;2022-11-15T12:40:39;85.40;;;53.47;;
16450;SDS011;12243;42.708;23.310;2022-11-15T12:43:39;86.67;;;52.93;;
16450;SDS011;12243;42.708;23.310;2022-11-15T12:46:13;87.00;;;53.17;;
16450;SDS011;12243;42.708;23.310;2022-11-15T12:48:51;89.00;;;53.63;;
16450;SDS011;12243;42.708;23.310;2022-11-15T12:51:19;92.27;;;54.17;;
16450;SDS011;12243;42.708;23.310;2022-11-15T12:53:47;91.70;;;55.30;;
16450;SDS011;12243;42.708;23.310;2022-11-15T12:56:22;83.80;;;52.30;;
16450;SDS011;12243;42.708;23.310;2022-11-15T12:58:54;94.07;;;57.67;;
16450;SDS011;12243;42.708;23.310;2022-11-15T13:04:27;84.97;;;54.17;;
16450;SDS011;12243;42.708;23.310;2022-11-15T13:06:58;89.73;;;55.03;;
16450;SDS011;12243;42.708;23.310;2022-11-15T13:15:39;87.70;;;53.23;;
16450;SDS011;12243;42.708;23.310;2022-11-15T13:18:29;79.90;;;48.83;;
16450;SDS011;12243;42.708;23.310;2022-11-15T13:21:18;80.13;;;49.70;;
16450;SDS011;12243;42.708;23.310;2022-11-15T13:24:04;81.27;;;49.57;;
16450;SDS011;12243;42.708;23.310;2022-11-15T13:26:37;79.67;;;51.03;;
16450;SDS011;12243;42.708;23.310;2022-11-15T13:29:12;78.43;;;49.50;;
16450;SDS011;12243;42.708;23.310;2022-11-15T13:31:42;86.03;;;51.33;;
16450;SDS011;12243;42.708;23.310;2022-11-15T13:36:58;75.50;;;47.17;;
16450;SDS011;12243;42.708;23.310;2022-11-15T13:39:27;76.17;;;49.13;;
16450;SDS011;12243;42.708;23.310;2022-11-15T13:41:55;78.87;;;48.80;;
16450;SDS011;12243;42.708;23.310;2022-11-15T13:44:24;82.43;;;50.83;;
16450;SDS011;12243;42.708;23.310;2022-11-15T13:47:03;82.73;;;50.93;;
16450;SDS011;12243;42.708;23.310;2022-11-15T13:49:31;84.20;;;51.13;;
16450;SDS011;12243;42.708;23.310;2022-11-15T13:52:00;78.60;;;50.40;;
16450;SDS011;12243;42.708;23.310;2022-11-15T13:54:29;81.20;;;49.57;;
16450;SDS011;12243;42.708;23.310;2022-11-15T13:57:03;80.17;;;48.70;;
16450;SDS011;12243;42.708;23.310;2022-11-15T13:59:33;76.50;;;49.13;;
16450;SDS011;12243;42.708;23.310;2022-11-15T14:02:02;76.93;;;49.43;;
16450;SDS011;12243;42.708;23.310;2022-11-15T14:04:38;82.40;;;50.30;;
16450;SDS011;12243;42.708;23.310;2022-11-15T14:07:15;87.13;;;54.47;;
16450;SDS011;12243;42.708;23.310;2022-11-15T14:09:44;79.97;;;49.50;;
16450;SDS011;12243;42.708;23.310;2022-11-15T14:12:28;79.07;;;48.93;;
16450;SDS011;12243;42.708;23.310;2022-11-15T14:14:58;81.73;;;51.70;;
16450;SDS011;12243;42.708;23.310;2022-11-15T14:17:34;86.27;;;51.30;;
16450;SDS011;12243;42.708;23.310;2022-11-15T14:20:19;86.97;;;52.63;;
16450;SDS011;12243;42.708;23.310;2022-11-15T14:22:53;83.03;;;51.03;;
16450;SDS011;12243;42.708;23.310;2022-11-15T14:25:21;91.50;;;53.90;;
16450;SDS011;12243;42.708;23.310;2022-11-15T14:28:09;86.00;;;52.23;;
16450;SDS011;12243;42.708;23.310;2022-11-15T14:30:41;79.23;;;47.67;;
16450;SDS011;12243;42.708;23.310;2022-11-15T14:33:18;76.13;;;46.53;;
16450;SDS011;12243;42.708;23.310;2022-11-15T14:35:47;71.00;;;46.33;;
16450;SDS011;12243;42.708;23.310;2022-11-15T14:38:14;74.67;;;47.33;;
16450;SDS011;12243;42.708;23.310;2022-11-15T14:40:41;77.60;;;48.30;;
16450;SDS011;12243;42.708;23.310;2022-11-15T14:43:09;74.97;;;46.73;;
16450;SDS011;12243;42.708;23.310;2022-11-15T14:45:37;71.33;;;44.27;;
16450;SDS011;12243;42.708;23.310;2022-11-15T14:48:06;73.33;;;46.90;;
16450;SDS011;12243;42.708;23.310;2022-11-15T14:50:33;71.43;;;44.17;;
16450;SDS011;12243;42.708;23.310;2022-11-15T14:53:01;75.33;;;45.80;;
16450;SDS011;12243;42.708;23.310;2022-11-15T14:55:29;73.90;;;43.90;;
16450;SDS011;12243;42.708;23.310;2022-11-15T14:58:00;65.77;;;42.83;;
16450;SDS011;12243;42.708;23.310;2022-11-15T15:00:29;69.07;;;45.23;;
16450;SDS011;12243;42.708;23.310;2022-11-15T15:02:56;75.70;;;45.80;;
16450;SDS011;12243;42.708;23.310;2022-11-15T15:05:25;69.20;;;43.37;;
16450;SDS011;12243;42.708;23.310;2022-11-15T15:07:56;74.93;;;45.80;;
16450;SDS011;12243;42.708;23.310;2022-11-15T15:10:23;71.63;;;44.17;;
16450;SDS011;12243;42.708;23.310;2022-11-15T15:12:51;76.17;;;44.20;;
16450;SDS011;12243;42.708;23.310;2022-11-15T15:15:22;77.60;;;46.87;;
16450;SDS011;12243;42.708;23.310;2022-11-15T15:17:51;80.27;;;47.47;;
16450;SDS011;12243;42.708;23.310;2022-11-15T15:20:18;73.70;;;48.17;;
16450;SDS011;12243;42.708;23.310;2022-11-15T15:22:46;80.13;;;47.90;;
16450;SDS011;12243;42.708;23.310;2022-11-15T15:25:18;81.90;;;49.43;;
16450;SDS011;12243;42.708;23.310;2022-11-15T15:27:47;83.60;;;48.23;;
16450;SDS011;12243;42.708;23.310;2022-11-15T15:30:15;77.57;;;48.10;;
16450;SDS011;12243;42.708;23.310;2022-11-15T15:32:42;84.37;;;50.03;;
16450;SDS011;12243;42.708;23.310;2022-11-15T15:35:11;83.83;;;49.30;;
16450;SDS011;12243;42.708;23.310;2022-11-15T15:37:39;95.13;;;50.50;;
16450;SDS011;12243;42.708;23.310;2022-11-15T15:40:10;86.13;;;51.27;;
16450;SDS011;12243;42.708;23.310;2022-11-15T15:42:39;87.07;;;52.33;;
16450;SDS011;12243;42.708;23.310;2022-11-15T15:45:07;85.97;;;52.30;;
16450;SDS011;12243;42.708;23.310;2022-11-15T15:47:34;91.77;;;52.13;;
16450;SDS011;12243;42.708;23.310;2022-11-15T15:50:01;84.67;;;51.20;;
16450;SDS011;12243;42.708;23.310;2022-11-15T15:52:29;103.60;;;59.17;;
16450;SDS011;12243;42.708;23.310;2022-11-15T15:54:56;97.90;;;58.07;;
16450;SDS011;12243;42.708;23.310;2022-11-15T15:57:24;95.53;;;55.53;;
16450;SDS011;12243;42.708;23.310;2022-11-15T15:59:51;94.93;;;55.33;;
16450;SDS011;12243;42.708;23.310;2022-11-15T16:02:18;94.87;;;52.83;;